^^
Station Historical Data
 
Daily Summary for August 18, 2017 Units:  Metric    English   Both
« Previous Day
Next Day »
Daily Weekly Monthly Yearly Custom
  Current: High: Low: Average:
Temperature: 18.6 °C 34.9 °C 14.2 °C 24.1 °C
Dew Point: 13.9 °C 21.1 °C 12.4 °C 17 °C
Humidity: 74% 93% 42% 68%
Wind Speed: 0km/h 0km/h 0km/h 0km/h
Wind Gust: 0km/h 0km/h - -
WindCalm - - North
Pressure: 1016.5 hPa 1018.5 hPa 1015.1 hPa -
Precipitation: 0 mm      
Historical Graphs
 
 
Tabular Data for August 18, 2017
Time Temperature Dew Point Pressure Wind Wind Speed Wind Gust Humidity Rainfall Rate (Hourly) solar Conditions
00:09 17.9 °C 15.2 °C 1017.2 hPa Calm     84% 0 mm WeatherDisplay:10.37 W/m2 CLR
00:19 17.9 °C 15.3 °C 1017.5 hPa Calm     85% 0 mm WeatherDisplay:10.37 W/m2 CLR
00:29 17.8 °C 15.2 °C 1017.2 hPa Calm     85% 0 mm WeatherDisplay:10.37 W/m2 CLR
00:40 17.7 °C 15.1 °C 1017.2 hPa Calm     85% 0 mm WeatherDisplay:10.37 W/m2 CLR
00:50 17.6 °C 15.1 °C 1017.5 hPa Calm     85% 0 mm WeatherDisplay:10.37 W/m2 CLR
00:59 17.5 °C 15.1 °C 1017.2 hPa Calm     86% 0 mm WeatherDisplay:10.37 W/m2 CLR
01:10 17.3 °C 14.9 °C 1017.2 hPa Calm     86% 0 mm WeatherDisplay:10.37 W/m2 CLR
01:19 17.2 °C 14.8 °C 1017.5 hPa Calm     86% 0 mm WeatherDisplay:10.37 W/m2 CLR
01:29 16.9 °C 14.6 °C 1017.5 hPa Calm     86% 0 mm WeatherDisplay:10.37 W/m2 CLR
01:40 16.8 °C 14.4 °C 1017.5 hPa Calm     86% 0 mm WeatherDisplay:10.37 W/m2 CLR
01:49 16.6 °C 14.2 °C 1017.5 hPa Calm     86% 0 mm WeatherDisplay:10.37 W/m2 CLR
01:59 16.5 °C 14.3 °C 1017.2 hPa Calm     87% 0 mm WeatherDisplay:10.37 W/m2 CLR
02:10 16.4 °C 14.2 °C 1017.5 hPa Calm     87% 0 mm WeatherDisplay:10.37 W/m2 CLR
02:19 16.4 °C 14.2 °C 1017.5 hPa Calm     87% 0 mm WeatherDisplay:10.37 W/m2 CLR
02:30 16.2 °C 14.2 °C 1017.2 hPa Calm     88% 0 mm WeatherDisplay:10.37 W/m2 CLR
02:39 16.1 °C 14.1 °C 1017.5 hPa Calm     88% 0 mm WeatherDisplay:10.37 W/m2 CLR
02:49 16.1 °C 14.1 °C 1017.5 hPa Calm     88% 0 mm WeatherDisplay:10.37 W/m2 CLR
02:59 15.9 °C 13.7 °C 1017.5 hPa Calm     87% 0 mm WeatherDisplay:10.37 W/m2 CLR
03:09 15.8 °C 13.8 °C 1017.2 hPa Calm     88% 0 mm WeatherDisplay:10.37 W/m2 CLR
03:19 15.8 °C 13.8 °C 1016.8 hPa Calm     88% 0 mm WeatherDisplay:10.37 W/m2 CLR
03:30 15.6 °C 13.6 °C 1017.2 hPa Calm     88% 0 mm WeatherDisplay:10.37 W/m2 CLR
03:39 15.5 °C 13.5 °C 1017.2 hPa Calm     88% 0 mm WeatherDisplay:10.37 W/m2 CLR
03:50 15.4 °C 13.4 °C 1017.2 hPa Calm     88% 0 mm WeatherDisplay:10.37 W/m2 CLR
03:59 15.3 °C 13.3 °C 1017.2 hPa Calm     88% 0 mm WeatherDisplay:10.37 W/m2 CLR
04:09 15.1 °C 13.1 °C 1017.2 hPa Calm     88% 0 mm WeatherDisplay:10.37 W/m2 CLR
04:19 14.9 °C 12.9 °C 1017.2 hPa Calm     88% 0 mm WeatherDisplay:10.37 W/m2 CLR
04:30 14.9 °C 12.9 °C 1017.2 hPa Calm     88% 0 mm WeatherDisplay:10.37 W/m2 CLR
04:39 14.9 °C 12.9 °C 1017.2 hPa Calm     88% 0 mm WeatherDisplay:10.37 W/m2 CLR
04:49 14.9 °C 12.9 °C 1017.2 hPa Calm     88% 0 mm WeatherDisplay:10.37 W/m2 CLR
04:59 14.9 °C 13.1 °C 1017.2 hPa Calm     89% 0 mm WeatherDisplay:10.37 W/m2 CLR
05:09 14.8 °C 13 °C 1017.5 hPa Calm     89% 0 mm WeatherDisplay:10.37 W/m2 CLR
05:40 14.5 °C 12.7 °C 1017.8 hPa Calm     89% 0 mm WeatherDisplay:10.37 W/m2 CLR
05:49 14.4 °C 12.6 °C 1017.8 hPa Calm     89% 0 mm WeatherDisplay:10.37 W/m2 CLR
05:59 14.4 °C 12.6 °C 1017.8 hPa Calm     89% 0 mm WeatherDisplay:10.37 W/m2 CLR
06:09 14.3 °C 12.5 °C 1017.8 hPa Calm     89% 0 mm WeatherDisplay:10.37 W/m2 CLR
06:19 14.2 °C 12.4 °C 1018.2 hPa Calm     89% 0 mm WeatherDisplay:10.37 W/m2 CLR
06:29 14.2 °C 12.4 °C 1017.8 hPa Calm     89% 0 mm WeatherDisplay:10.37 W/m2 CLR
06:39 14.3 °C 12.7 °C 1018.2 hPa Calm     90% 0 mm WeatherDisplay:10.37 W/m2 CLR
06:49 14.3 °C 12.8 °C 1018.2 hPa Calm     91% 0 mm WeatherDisplay:10.37 W/m2 CLR
06:59 14.4 °C 12.9 °C 1018.2 hPa Calm     91% 0 mm WeatherDisplay:10.37 W/m2 CLR
07:09 14.4 °C 13 °C 1018.2 hPa Calm     91% 0 mm WeatherDisplay:10.37 W/m2 CLR
07:19 14.6 °C 13.2 °C 1018.2 hPa Calm     91% 0 mm WeatherDisplay:10.37 W/m2 CLR
07:39 14.9 °C 13.6 °C 1018.5 hPa Calm     92% 0 mm WeatherDisplay:10.37 W/m2 CLR
07:49 15.4 °C 14.3 °C 1018.2 hPa Calm     93% 0 mm WeatherDisplay:10.37 W/m2 CLR
07:59 15.8 °C 14.7 °C 1018.5 hPa Calm     93% 0 mm WeatherDisplay:10.37 W/m2 CLR
08:09 16.1 °C 14.9 °C 1018.2 hPa Calm     93% 0 mm WeatherDisplay:10.37 W/m2 CLR
08:19 16.5 °C 15.3 °C 1018.2 hPa Calm     93% 0 mm WeatherDisplay:10.37 W/m2 CLR
08:29 16.9 °C 15.8 °C 1018.2 hPa Calm     93% 0 mm WeatherDisplay:10.37 W/m2 CLR
08:39 17.7 °C 16.6 °C 1018.5 hPa Calm     93% 0 mm WeatherDisplay:10.37 W/m2 CLR
08:49 18.5 °C 17 °C 1018.5 hPa Calm     91% 0 mm WeatherDisplay:10.37 W/m2 CLR
08:59 19.6 °C 17.7 °C 1018.5 hPa Calm     89% 0 mm WeatherDisplay:10.37 W/m2 CLR
09:09 20.5 °C 18.1 °C 1018.5 hPa Calm     86% 0 mm WeatherDisplay:10.37 W/m2 CLR
09:19 21.4 °C 18.4 °C 1018.5 hPa Calm     83% 0 mm WeatherDisplay:10.37 W/m2 CLR
09:29 22.3 °C 18.9 °C 1018.5 hPa Calm     81% 0 mm WeatherDisplay:10.37 W/m2 CLR
09:39 23 °C 18.9 °C 1018.2 hPa Calm     78% 0 mm WeatherDisplay:10.37 W/m2 CLR
09:49 23.8 °C 19.3 °C 1018.5 hPa Calm     76% 0 mm WeatherDisplay:10.37 W/m2 CLR
09:59 24.6 °C 19.7 °C 1018.2 hPa Calm     74% 0 mm WeatherDisplay:10.37 W/m2 CLR
10:09 25.1 °C 19.7 °C 1018.2 hPa Calm     72% 0 mm WeatherDisplay:10.37 W/m2 CLR
10:19 25.7 °C 20.1 °C 1018.2 hPa Calm     71% 0 mm WeatherDisplay:10.37 W/m2 CLR
10:29 26.4 °C 20.3 °C 1018.2 hPa Calm     69% 0 mm WeatherDisplay:10.37 W/m2 CLR
10:39 27.1 °C 20.4 °C 1018.2 hPa Calm     67% 0 mm WeatherDisplay:10.37 W/m2 CLR
10:49 27.7 °C 20.5 °C 1017.8 hPa Calm     65% 0 mm WeatherDisplay:10.37 W/m2 CLR
10:59 28.2 °C 20.7 °C 1017.8 hPa Calm     64% 0 mm WeatherDisplay:10.37 W/m2 CLR
11:09 28.5 °C 20.8 °C 1017.8 hPa Calm     63% 0 mm WeatherDisplay:10.37 W/m2 CLR
11:19 28.8 °C 20.8 °C 1017.8 hPa Calm     62% 0 mm WeatherDisplay:10.37 W/m2 CLR
11:29 29.3 °C 20.7 °C 1017.8 hPa Calm     60% 0 mm WeatherDisplay:10.37 W/m2 CLR
11:39 29.6 °C 20.7 °C 1017.5 hPa Calm     59% 0 mm WeatherDisplay:10.37 W/m2 CLR
11:49 30.2 °C 20.7 °C 1017.5 hPa Calm     57% 0 mm WeatherDisplay:10.37 W/m2 CLR
11:59 30.6 °C 21.1 °C 1017.5 hPa Calm     57% 0 mm WeatherDisplay:10.37 W/m2 CLR
12:09 30.8 °C 20.4 °C 1017.5 hPa Calm     54% 0 mm WeatherDisplay:10.37 W/m2 CLR
12:19 31.3 °C 19.6 °C 1017.2 hPa Calm     50% 0 mm WeatherDisplay:10.37 W/m2 CLR
12:29 31.5 °C 19.2 °C 1017.2 hPa Calm     48% 0 mm WeatherDisplay:10.37 W/m2 CLR
12:39 31.9 °C 19.5 °C 1017.2 hPa Calm     48% 0 mm WeatherDisplay:10.37 W/m2 CLR
12:49 32.3 °C 20.6 °C 1016.8 hPa Calm     50% 0 mm WeatherDisplay:10.37 W/m2 CLR
12:59 32.5 °C 20.4 °C 1016.8 hPa Calm     49% 0 mm WeatherDisplay:10.37 W/m2 CLR
13:09 32.6 °C 20.5 °C 1016.8 hPa Calm     49% 0 mm WeatherDisplay:10.37 W/m2 CLR
13:19 32.8 °C 20.7 °C 1016.8 hPa Calm     49% 0 mm WeatherDisplay:10.37 W/m2 CLR
13:29 33 °C 20.6 °C 1016.5 hPa Calm     48% 0 mm WeatherDisplay:10.37 W/m2 CLR
13:39 32.9 °C 20.1 °C 1016.5 hPa Calm     47% 0 mm WeatherDisplay:10.37 W/m2 CLR
13:49 33.1 °C 20.2 °C 1016.5 hPa Calm     47% 0 mm WeatherDisplay:10.37 W/m2 CLR
13:59 33.3 °C 20.1 °C 1016.1 hPa Calm     46% 0 mm WeatherDisplay:10.37 W/m2 CLR
14:09 33.4 °C 20.2 °C 1016.1 hPa Calm     46% 0 mm WeatherDisplay:10.37 W/m2 CLR
14:19 33.5 °C 19.9 °C 1015.8 hPa Calm     45% 0 mm WeatherDisplay:10.37 W/m2 CLR
14:29 33.8 °C 19.8 °C 1015.8 hPa Calm     44% 0 mm WeatherDisplay:10.37 W/m2 CLR
14:39 33.9 °C 19.9 °C 1015.8 hPa Calm     44% 0 mm WeatherDisplay:10.37 W/m2 CLR
14:49 34.1 °C 20.1 °C 1015.5 hPa Calm     44% 0 mm WeatherDisplay:10.37 W/m2 CLR
14:59 34.2 °C 20.2 °C 1015.8 hPa Calm     44% 0 mm WeatherDisplay:10.37 W/m2 CLR
15:09 34.3 °C 19.9 °C 1015.5 hPa Calm     43% 0 mm WeatherDisplay:10.37 W/m2 CLR
15:19 34.3 °C 19.9 °C 1015.5 hPa Calm     43% 0 mm WeatherDisplay:10.37 W/m2 CLR
15:29 34.4 °C 20 °C 1015.5 hPa Calm     43% 0 mm WeatherDisplay:10.37 W/m2 CLR
15:39 34.4 °C 19.6 °C 1015.5 hPa Calm     42% 0 mm WeatherDisplay:10.37 W/m2 CLR
15:49 34.4 °C 20 °C 1015.5 hPa Calm     43% 0 mm WeatherDisplay:10.37 W/m2 CLR
15:59 34.6 °C 20.2 °C 1015.1 hPa Calm     43% 0 mm WeatherDisplay:10.37 W/m2 CLR
16:09 34.6 °C 20.2 °C 1015.1 hPa Calm     43% 0 mm WeatherDisplay:10.37 W/m2 CLR
16:19 34.8 °C 20.4 °C 1015.1 hPa Calm     43% 0 mm WeatherDisplay:10.37 W/m2 CLR
16:29 34.9 °C 20.1 °C 1015.5 hPa Calm     42% 0 mm WeatherDisplay:10.37 W/m2 CLR
16:39 34.8 °C 20.4 °C 1015.1 hPa Calm     43% 0 mm WeatherDisplay:10.37 W/m2 CLR
16:49 34.8 °C 20 °C 1015.1 hPa Calm     42% 0 mm WeatherDisplay:10.37 W/m2 CLR
16:59 34.7 °C 19.9 °C 1015.1 hPa Calm     42% 0 mm WeatherDisplay:10.37 W/m2 CLR
17:09 34.6 °C 19.8 °C 1015.1 hPa Calm     42% 0 mm WeatherDisplay:10.37 W/m2 CLR
17:19 34.5 °C 20.1 °C 1015.1 hPa Calm     43% 0 mm WeatherDisplay:10.37 W/m2 CLR
17:29 34.4 °C 19.6 °C 1015.1 hPa Calm     42% 0 mm WeatherDisplay:10.37 W/m2 CLR
17:39 34.1 °C 19.7 °C 1015.1 hPa Calm     43% 0 mm WeatherDisplay:10.37 W/m2 CLR
17:49 33.8 °C 19.8 °C 1015.1 hPa Calm     44% 0 mm WeatherDisplay:10.37 W/m2 CLR
17:59 33.3 °C 19 °C 1015.1 hPa Calm     43% 0 mm WeatherDisplay:10.37 W/m2 CLR
18:09 33 °C 19.1 °C 1015.1 hPa Calm     44% 0 mm WeatherDisplay:10.37 W/m2 CLR
18:19 32.9 °C 19.4 °C 1015.1 hPa Calm     45% 0 mm WeatherDisplay:10.37 W/m2 CLR
18:29 32.8 °C 19.3 °C 1015.1 hPa Calm     45% 0 mm WeatherDisplay:10.37 W/m2 CLR
18:39 32.5 °C 19.1 °C 1015.5 hPa Calm     45% 0 mm WeatherDisplay:10.37 W/m2 CLR
18:49 32.3 °C 18.8 °C 1015.1 hPa Calm     45% 0 mm WeatherDisplay:10.37 W/m2 CLR
18:59 31.7 °C 18.7 °C 1015.5 hPa Calm     46% 0 mm WeatherDisplay:10.37 W/m2 CLR
19:09 30.9 °C 18.3 °C 1015.5 hPa Calm     47% 0 mm WeatherDisplay:10.37 W/m2 CLR
19:19 30.3 °C 18.4 °C 1015.5 hPa Calm     49% 0 mm WeatherDisplay:10.37 W/m2 CLR
19:29 29.6 °C 18.3 °C 1015.5 hPa Calm     51% 0 mm WeatherDisplay:10.37 W/m2 CLR
19:39 28.7 °C 17.9 °C 1015.5 hPa Calm     52% 0 mm WeatherDisplay:10.37 W/m2 CLR
19:49 27.9 °C 17.7 °C 1015.5 hPa Calm     54% 0 mm WeatherDisplay:10.37 W/m2 CLR
19:59 27.4 °C 17.8 °C 1015.8 hPa Calm     56% 0 mm WeatherDisplay:10.37 W/m2 CLR
20:09 26.8 °C 17.8 °C 1015.8 hPa Calm     58% 0 mm WeatherDisplay:10.37 W/m2 CLR
20:19 26.3 °C 17.3 °C 1016.1 hPa Calm     58% 0 mm WeatherDisplay:10.37 W/m2 CLR
20:29 25.7 °C 17.3 °C 1016.1 hPa Calm     60% 0 mm WeatherDisplay:10.37 W/m2 CLR
20:39 25.1 °C 17.1 °C 1015.8 hPa Calm     61% 0 mm WeatherDisplay:10.37 W/m2 CLR
20:49 24.6 °C 16.8 °C 1016.1 hPa Calm     62% 0 mm WeatherDisplay:10.37 W/m2 CLR
20:59 24.2 °C 16.5 °C 1016.1 hPa Calm     62% 0 mm WeatherDisplay:10.37 W/m2 CLR
21:09 23.8 °C 16.6 °C 1016.1 hPa Calm     64% 0 mm WeatherDisplay:10.37 W/m2 CLR
21:19 23.3 °C 16.4 °C 1016.5 hPa Calm     65% 0 mm WeatherDisplay:10.37 W/m2 CLR
21:29 22.9 °C 16 °C 1016.1 hPa Calm     65% 0 mm WeatherDisplay:10.37 W/m2 CLR
21:39 22.6 °C 15.9 °C 1016.1 hPa Calm     66% 0 mm WeatherDisplay:10.37 W/m2 CLR
21:49 22.3 °C 15.7 °C 1016.1 hPa Calm     66% 0 mm WeatherDisplay:10.37 W/m2 CLR
21:59 22 °C 15.6 °C 1016.1 hPa Calm     67% 0 mm WeatherDisplay:10.37 W/m2 CLR
22:09 21.7 °C 15.8 °C 1016.1 hPa Calm     69% 0 mm WeatherDisplay:10.37 W/m2 CLR
22:19 21.3 °C 15.6 °C 1016.1 hPa Calm     70% 0 mm WeatherDisplay:10.37 W/m2 CLR
22:29 20.9 °C 15.5 °C 1016.1 hPa Calm     71% 0 mm WeatherDisplay:10.37 W/m2 CLR
22:39 20.6 °C 15.2 °C 1016.1 hPa Calm     71% 0 mm WeatherDisplay:10.37 W/m2 CLR
22:49 20.3 °C 14.7 °C 1016.1 hPa Calm     70% 0 mm WeatherDisplay:10.37 W/m2 CLR
22:59 19.9 °C 14.5 °C 1016.5 hPa Calm     71% 0 mm WeatherDisplay:10.37 W/m2 CLR
23:09 19.7 °C 14.2 °C 1016.1 hPa Calm     71% 0 mm WeatherDisplay:10.37 W/m2 CLR
23:19 19.4 °C 14.2 °C 1016.1 hPa Calm     72% 0 mm WeatherDisplay:10.37 W/m2 CLR
23:29 19.2 °C 14.3 °C 1016.5 hPa Calm     73% 0 mm WeatherDisplay:10.37 W/m2 CLR
23:39 19.1 °C 13.9 °C 1016.5 hPa Calm     72% 0 mm WeatherDisplay:10.37 W/m2 CLR
23:49 18.9 °C 14.2 °C 1016.5 hPa Calm     74% 0 mm WeatherDisplay:10.37 W/m2 CLR
23:59 18.6 °C 13.9 °C 1016.5 hPa Calm     74% 0 mm WeatherDisplay:10.37 W/m2 CLR
Knjazevac, Serbia
Compliments of Weather Underground - 1.5 mb